sensor_id;sensor_type;location;lat;lon;timestamp;P1;durP1;ratioP1;P2;durP2;ratioP2
75413;SDS011;64758;52.122;5.404;2023-11-19T00:02:26;8.90;;;3.00;;
75413;SDS011;64758;52.122;5.404;2023-11-19T00:04:53;8.93;;;2.55;;
75413;SDS011;64758;52.122;5.404;2023-11-19T00:07:20;9.75;;;2.63;;
75413;SDS011;64758;52.122;5.404;2023-11-19T00:09:47;8.93;;;2.70;;
75413;SDS011;64758;52.122;5.404;2023-11-19T00:12:14;4.83;;;2.33;;
75413;SDS011;64758;52.122;5.404;2023-11-19T00:14:40;6.60;;;2.65;;
75413;SDS011;64758;52.122;5.404;2023-11-19T00:17:07;12.52;;;2.55;;
75413;SDS011;64758;52.122;5.404;2023-11-19T00:19:34;7.63;;;2.63;;
75413;SDS011;64758;52.122;5.404;2023-11-19T00:22:00;6.57;;;2.30;;
75413;SDS011;64758;52.122;5.404;2023-11-19T00:24:30;14.50;;;2.30;;
75413;SDS011;64758;52.122;5.404;2023-11-19T00:26:56;10.50;;;2.50;;
75413;SDS011;64758;52.122;5.404;2023-11-19T00:29:23;10.00;;;2.10;;
75413;SDS011;64758;52.122;5.404;2023-11-19T00:31:51;10.25;;;2.38;;
75413;SDS011;64758;52.122;5.404;2023-11-19T00:34:18;13.38;;;2.03;;
75413;SDS011;64758;52.122;5.404;2023-11-19T00:36:47;8.70;;;1.67;;
75413;SDS011;64758;52.122;5.404;2023-11-19T00:39:15;15.13;;;2.50;;
75413;SDS011;64758;52.122;5.404;2023-11-19T00:41:42;13.48;;;2.40;;
75413;SDS011;64758;52.122;5.404;2023-11-19T00:44:08;8.70;;;1.75;;
75413;SDS011;64758;52.122;5.404;2023-11-19T00:46:35;11.13;;;1.85;;
75413;SDS011;64758;52.122;5.404;2023-11-19T00:49:03;13.43;;;1.83;;
75413;SDS011;64758;52.122;5.404;2023-11-19T00:51:29;11.88;;;1.67;;
75413;SDS011;64758;52.122;5.404;2023-11-19T00:53:58;13.95;;;2.13;;
75413;SDS011;64758;52.122;5.404;2023-11-19T00:56:25;8.07;;;1.48;;
75413;SDS011;64758;52.122;5.404;2023-11-19T00:58:52;9.63;;;1.60;;
75413;SDS011;64758;52.122;5.404;2023-11-19T01:01:18;15.67;;;1.77;;
75413;SDS011;64758;52.122;5.404;2023-11-19T01:03:45;12.35;;;1.60;;
75413;SDS011;64758;52.122;5.404;2023-11-19T01:06:12;15.95;;;2.60;;
75413;SDS011;64758;52.122;5.404;2023-11-19T01:08:41;14.98;;;1.70;;
75413;SDS011;64758;52.122;5.404;2023-11-19T01:11:09;10.65;;;1.73;;
75413;SDS011;64758;52.122;5.404;2023-11-19T01:13:47;16.83;;;2.00;;
75413;SDS011;64758;52.122;5.404;2023-11-19T01:16:14;15.85;;;2.08;;
75413;SDS011;64758;52.122;5.404;2023-11-19T01:18:41;16.98;;;1.83;;
75413;SDS011;64758;52.122;5.404;2023-11-19T01:21:07;15.52;;;2.47;;
75413;SDS011;64758;52.122;5.404;2023-11-19T01:23:35;18.58;;;2.10;;
75413;SDS011;64758;52.122;5.404;2023-11-19T01:26:01;16.37;;;2.03;;
75413;SDS011;64758;52.122;5.404;2023-11-19T01:28:28;13.20;;;2.00;;
75413;SDS011;64758;52.122;5.404;2023-11-19T01:30:56;18.20;;;2.50;;
75413;SDS011;64758;52.122;5.404;2023-11-19T01:33:23;14.82;;;1.80;;
75413;SDS011;64758;52.122;5.404;2023-11-19T01:35:49;14.63;;;1.73;;
75413;SDS011;64758;52.122;5.404;2023-11-19T01:38:16;18.60;;;2.40;;
75413;SDS011;64758;52.122;5.404;2023-11-19T01:40:43;17.77;;;2.20;;
75413;SDS011;64758;52.122;5.404;2023-11-19T01:43:09;16.20;;;2.50;;
75413;SDS011;64758;52.122;5.404;2023-11-19T01:45:37;14.57;;;2.28;;
75413;SDS011;64758;52.122;5.404;2023-11-19T01:48:05;15.90;;;2.05;;
75413;SDS011;64758;52.122;5.404;2023-11-19T01:50:33;15.53;;;2.30;;
75413;SDS011;64758;52.122;5.404;2023-11-19T01:53:00;22.70;;;2.53;;
75413;SDS011;64758;52.122;5.404;2023-11-19T01:55:27;21.58;;;3.00;;
75413;SDS011;64758;52.122;5.404;2023-11-19T01:57:58;21.15;;;2.35;;
75413;SDS011;64758;52.122;5.404;2023-11-19T02:00:26;25.05;;;2.78;;
75413;SDS011;64758;52.122;5.404;2023-11-19T02:02:52;21.13;;;2.97;;
75413;SDS011;64758;52.122;5.404;2023-11-19T02:05:21;17.80;;;1.95;;
75413;SDS011;64758;52.122;5.404;2023-11-19T02:07:47;22.95;;;2.70;;
75413;SDS011;64758;52.122;5.404;2023-11-19T02:10:16;18.60;;;2.63;;
75413;SDS011;64758;52.122;5.404;2023-11-19T02:12:45;18.98;;;2.60;;
75413;SDS011;64758;52.122;5.404;2023-11-19T02:15:12;18.77;;;1.87;;
75413;SDS011;64758;52.122;5.404;2023-11-19T02:17:39;19.05;;;2.03;;
75413;SDS011;64758;52.122;5.404;2023-11-19T02:20:06;16.00;;;1.85;;
75413;SDS011;64758;52.122;5.404;2023-11-19T02:22:35;23.05;;;2.67;;
75413;SDS011;64758;52.122;5.404;2023-11-19T02:25:04;21.42;;;2.20;;
75413;SDS011;64758;52.122;5.404;2023-11-19T02:30:23;23.48;;;2.65;;
75413;SDS011;64758;52.122;5.404;2023-11-19T02:32:54;20.65;;;2.28;;
75413;SDS011;64758;52.122;5.404;2023-11-19T02:35:25;24.25;;;2.88;;
75413;SDS011;64758;52.122;5.404;2023-11-19T02:37:52;21.88;;;2.50;;
75413;SDS011;64758;52.122;5.404;2023-11-19T02:40:20;25.93;;;2.10;;
75413;SDS011;64758;52.122;5.404;2023-11-19T02:42:49;28.23;;;2.70;;
75413;SDS011;64758;52.122;5.404;2023-11-19T02:45:15;26.90;;;2.58;;
75413;SDS011;64758;52.122;5.404;2023-11-19T02:47:43;34.25;;;3.38;;
75413;SDS011;64758;52.122;5.404;2023-11-19T02:50:11;25.52;;;2.78;;
75413;SDS011;64758;52.122;5.404;2023-11-19T02:52:41;25.53;;;2.60;;
75413;SDS011;64758;52.122;5.404;2023-11-19T02:55:09;19.52;;;2.63;;
75413;SDS011;64758;52.122;5.404;2023-11-19T02:57:39;27.80;;;3.53;;
75413;SDS011;64758;52.122;5.404;2023-11-19T03:00:18;25.48;;;3.67;;
75413;SDS011;64758;52.122;5.404;2023-11-19T03:02:51;18.92;;;2.00;;
75413;SDS011;64758;52.122;5.404;2023-11-19T03:05:36;21.57;;;1.90;;
75413;SDS011;64758;52.122;5.404;2023-11-19T03:08:03;24.50;;;2.63;;
75413;SDS011;64758;52.122;5.404;2023-11-19T03:10:29;22.67;;;2.60;;
75413;SDS011;64758;52.122;5.404;2023-11-19T03:12:56;21.35;;;2.80;;
75413;SDS011;64758;52.122;5.404;2023-11-19T03:15:23;26.27;;;2.65;;
75413;SDS011;64758;52.122;5.404;2023-11-19T03:17:50;19.23;;;2.37;;
75413;SDS011;64758;52.122;5.404;2023-11-19T03:20:16;29.35;;;3.30;;
75413;SDS011;64758;52.122;5.404;2023-11-19T03:22:43;21.25;;;2.92;;
75413;SDS011;64758;52.122;5.404;2023-11-19T03:25:13;29.45;;;2.75;;
75413;SDS011;64758;52.122;5.404;2023-11-19T03:27:39;22.45;;;2.35;;
75413;SDS011;64758;52.122;5.404;2023-11-19T03:30:08;27.10;;;2.60;;
75413;SDS011;64758;52.122;5.404;2023-11-19T03:32:36;22.00;;;3.35;;
75413;SDS011;64758;52.122;5.404;2023-11-19T03:35:02;27.83;;;2.60;;
75413;SDS011;64758;52.122;5.404;2023-11-19T03:37:30;25.73;;;3.10;;
75413;SDS011;64758;52.122;5.404;2023-11-19T03:39:58;24.75;;;2.83;;
75413;SDS011;64758;52.122;5.404;2023-11-19T03:42:28;33.00;;;3.47;;
75413;SDS011;64758;52.122;5.404;2023-11-19T03:44:58;24.40;;;3.20;;
75413;SDS011;64758;52.122;5.404;2023-11-19T03:47:25;20.38;;;2.42;;
75413;SDS011;64758;52.122;5.404;2023-11-19T03:49:52;29.52;;;2.78;;
75413;SDS011;64758;52.122;5.404;2023-11-19T03:52:19;24.95;;;2.42;;
75413;SDS011;64758;52.122;5.404;2023-11-19T03:54:46;16.90;;;2.40;;
75413;SDS011;64758;52.122;5.404;2023-11-19T03:57:13;26.75;;;2.90;;
75413;SDS011;64758;52.122;5.404;2023-11-19T03:59:41;31.73;;;2.30;;
75413;SDS011;64758;52.122;5.404;2023-11-19T04:02:07;24.88;;;2.72;;
75413;SDS011;64758;52.122;5.404;2023-11-19T04:04:34;26.13;;;2.75;;
75413;SDS011;64758;52.122;5.404;2023-11-19T04:07:01;24.70;;;2.58;;
75413;SDS011;64758;52.122;5.404;2023-11-19T04:09:29;20.63;;;1.70;;
75413;SDS011;64758;52.122;5.404;2023-11-19T04:11:56;23.40;;;2.17;;
75413;SDS011;64758;52.122;5.404;2023-11-19T04:14:23;25.20;;;2.78;;
75413;SDS011;64758;52.122;5.404;2023-11-19T04:16:50;25.95;;;3.00;;
75413;SDS011;64758;52.122;5.404;2023-11-19T04:19:18;28.33;;;3.90;;
75413;SDS011;64758;52.122;5.404;2023-11-19T04:21:45;31.08;;;3.58;;
75413;SDS011;64758;52.122;5.404;2023-11-19T04:24:12;29.77;;;3.10;;
75413;SDS011;64758;52.122;5.404;2023-11-19T04:26:41;29.85;;;4.18;;
75413;SDS011;64758;52.122;5.404;2023-11-19T04:29:09;26.73;;;2.85;;
75413;SDS011;64758;52.122;5.404;2023-11-19T04:31:37;26.40;;;2.75;;
75413;SDS011;64758;52.122;5.404;2023-11-19T04:34:04;31.00;;;3.17;;
75413;SDS011;64758;52.122;5.404;2023-11-19T04:36:30;29.47;;;2.73;;
75413;SDS011;64758;52.122;5.404;2023-11-19T04:38:57;22.30;;;2.90;;
75413;SDS011;64758;52.122;5.404;2023-11-19T04:41:23;29.30;;;2.72;;
75413;SDS011;64758;52.122;5.404;2023-11-19T04:43:50;25.30;;;2.35;;
75413;SDS011;64758;52.122;5.404;2023-11-19T04:46:16;21.77;;;2.88;;
75413;SDS011;64758;52.122;5.404;2023-11-19T04:48:43;25.13;;;2.00;;
75413;SDS011;64758;52.122;5.404;2023-11-19T04:51:10;20.45;;;2.65;;
75413;SDS011;64758;52.122;5.404;2023-11-19T04:53:36;28.73;;;3.17;;
75413;SDS011;64758;52.122;5.404;2023-11-19T04:56:12;23.30;;;2.55;;
75413;SDS011;64758;52.122;5.404;2023-11-19T04:58:39;22.40;;;2.25;;
75413;SDS011;64758;52.122;5.404;2023-11-19T05:01:06;25.17;;;2.93;;
75413;SDS011;64758;52.122;5.404;2023-11-19T05:03:40;31.25;;;2.42;;
75413;SDS011;64758;52.122;5.404;2023-11-19T05:06:07;32.60;;;2.78;;
75413;SDS011;64758;52.122;5.404;2023-11-19T05:08:35;24.98;;;2.45;;
75413;SDS011;64758;52.122;5.404;2023-11-19T05:11:02;23.15;;;3.08;;
75413;SDS011;64758;52.122;5.404;2023-11-19T05:13:29;36.40;;;3.60;;
75413;SDS011;64758;52.122;5.404;2023-11-19T05:15:56;29.85;;;2.85;;
75413;SDS011;64758;52.122;5.404;2023-11-19T05:18:22;29.58;;;3.15;;
75413;SDS011;64758;52.122;5.404;2023-11-19T05:20:49;32.08;;;3.00;;
75413;SDS011;64758;52.122;5.404;2023-11-19T05:23:16;24.92;;;3.17;;
75413;SDS011;64758;52.122;5.404;2023-11-19T05:25:45;21.73;;;2.50;;
75413;SDS011;64758;52.122;5.404;2023-11-19T05:28:12;24.48;;;2.95;;
75413;SDS011;64758;52.122;5.404;2023-11-19T05:30:40;24.20;;;2.30;;
75413;SDS011;64758;52.122;5.404;2023-11-19T05:33:07;28.65;;;2.88;;
75413;SDS011;64758;52.122;5.404;2023-11-19T05:35:34;20.60;;;2.10;;
75413;SDS011;64758;52.122;5.404;2023-11-19T05:38:01;16.73;;;2.17;;
75413;SDS011;64758;52.122;5.404;2023-11-19T05:40:28;19.20;;;2.17;;
75413;SDS011;64758;52.122;5.404;2023-11-19T05:42:55;22.67;;;2.83;;
75413;SDS011;64758;52.122;5.404;2023-11-19T05:45:22;30.38;;;2.92;;
75413;SDS011;64758;52.122;5.404;2023-11-19T05:47:49;27.65;;;2.58;;
75413;SDS011;64758;52.122;5.404;2023-11-19T05:50:16;23.50;;;2.70;;
75413;SDS011;64758;52.122;5.404;2023-11-19T05:52:42;23.83;;;2.17;;
75413;SDS011;64758;52.122;5.404;2023-11-19T05:55:09;25.85;;;2.92;;
75413;SDS011;64758;52.122;5.404;2023-11-19T05:57:37;31.23;;;3.97;;
75413;SDS011;64758;52.122;5.404;2023-11-19T06:00:12;25.65;;;3.10;;
75413;SDS011;64758;52.122;5.404;2023-11-19T06:02:39;31.37;;;3.03;;
75413;SDS011;64758;52.122;5.404;2023-11-19T06:05:06;28.85;;;2.95;;
75413;SDS011;64758;52.122;5.404;2023-11-19T06:07:33;21.73;;;3.25;;
75413;SDS011;64758;52.122;5.404;2023-11-19T06:10:00;29.17;;;3.00;;
75413;SDS011;64758;52.122;5.404;2023-11-19T06:12:26;22.38;;;2.47;;
75413;SDS011;64758;52.122;5.404;2023-11-19T06:14:54;24.40;;;2.63;;
75413;SDS011;64758;52.122;5.404;2023-11-19T06:17:20;24.35;;;3.42;;
75413;SDS011;64758;52.122;5.404;2023-11-19T06:19:47;24.10;;;2.72;;
75413;SDS011;64758;52.122;5.404;2023-11-19T06:22:13;33.75;;;3.38;;
75413;SDS011;64758;52.122;5.404;2023-11-19T06:24:40;25.48;;;2.50;;
75413;SDS011;64758;52.122;5.404;2023-11-19T06:27:07;26.83;;;3.13;;
75413;SDS011;64758;52.122;5.404;2023-11-19T06:29:33;23.95;;;2.85;;
75413;SDS011;64758;52.122;5.404;2023-11-19T06:32:00;26.70;;;3.33;;
75413;SDS011;64758;52.122;5.404;2023-11-19T06:34:41;22.92;;;2.50;;
75413;SDS011;64758;52.122;5.404;2023-11-19T06:37:08;30.27;;;2.85;;
75413;SDS011;64758;52.122;5.404;2023-11-19T06:39:35;24.37;;;2.80;;
75413;SDS011;64758;52.122;5.404;2023-11-19T06:42:02;24.50;;;3.28;;
75413;SDS011;64758;52.122;5.404;2023-11-19T06:44:29;28.50;;;3.00;;
75413;SDS011;64758;52.122;5.404;2023-11-19T06:46:55;30.95;;;2.78;;
75413;SDS011;64758;52.122;5.404;2023-11-19T06:54:42;26.40;;;2.45;;
75413;SDS011;64758;52.122;5.404;2023-11-19T06:57:09;19.58;;;2.78;;
75413;SDS011;64758;52.122;5.404;2023-11-19T06:59:35;27.17;;;2.90;;
75413;SDS011;64758;52.122;5.404;2023-11-19T07:02:02;27.45;;;3.03;;
75413;SDS011;64758;52.122;5.404;2023-11-19T07:04:29;23.10;;;2.70;;
75413;SDS011;64758;52.122;5.404;2023-11-19T07:06:56;25.85;;;2.40;;
75413;SDS011;64758;52.122;5.404;2023-11-19T07:09:22;20.70;;;2.53;;
75413;SDS011;64758;52.122;5.404;2023-11-19T07:11:49;25.02;;;2.50;;
75413;SDS011;64758;52.122;5.404;2023-11-19T07:14:18;29.85;;;3.58;;
75413;SDS011;64758;52.122;5.404;2023-11-19T07:16:45;26.70;;;2.60;;
75413;SDS011;64758;52.122;5.404;2023-11-19T07:19:16;20.17;;;2.65;;
75413;SDS011;64758;52.122;5.404;2023-11-19T07:21:43;22.88;;;2.00;;
75413;SDS011;64758;52.122;5.404;2023-11-19T07:24:12;24.50;;;2.55;;
75413;SDS011;64758;52.122;5.404;2023-11-19T07:26:43;30.08;;;3.30;;
75413;SDS011;64758;52.122;5.404;2023-11-19T07:29:10;25.43;;;2.37;;
75413;SDS011;64758;52.122;5.404;2023-11-19T07:31:37;29.10;;;3.13;;
75413;SDS011;64758;52.122;5.404;2023-11-19T07:34:04;34.08;;;3.47;;
75413;SDS011;64758;52.122;5.404;2023-11-19T07:36:32;27.58;;;2.45;;
75413;SDS011;64758;52.122;5.404;2023-11-19T07:38:59;24.65;;;2.38;;
75413;SDS011;64758;52.122;5.404;2023-11-19T07:41:25;23.53;;;2.50;;
75413;SDS011;64758;52.122;5.404;2023-11-19T07:43:52;24.15;;;3.22;;
75413;SDS011;64758;52.122;5.404;2023-11-19T07:46:19;19.90;;;1.98;;
75413;SDS011;64758;52.122;5.404;2023-11-19T07:48:46;28.85;;;2.75;;
75413;SDS011;64758;52.122;5.404;2023-11-19T07:51:15;21.80;;;2.80;;
75413;SDS011;64758;52.122;5.404;2023-11-19T07:53:42;30.07;;;3.20;;
75413;SDS011;64758;52.122;5.404;2023-11-19T07:56:09;30.08;;;2.83;;
75413;SDS011;64758;52.122;5.404;2023-11-19T07:58:36;24.08;;;2.45;;
75413;SDS011;64758;52.122;5.404;2023-11-19T08:01:03;27.45;;;2.83;;
75413;SDS011;64758;52.122;5.404;2023-11-19T08:03:29;29.25;;;3.45;;
75413;SDS011;64758;52.122;5.404;2023-11-19T08:05:56;31.00;;;2.70;;
75413;SDS011;64758;52.122;5.404;2023-11-19T08:08:23;23.77;;;2.13;;
75413;SDS011;64758;52.122;5.404;2023-11-19T08:10:50;26.05;;;2.20;;
75413;SDS011;64758;52.122;5.404;2023-11-19T08:13:18;26.67;;;2.42;;
75413;SDS011;64758;52.122;5.404;2023-11-19T08:15:47;30.85;;;2.90;;
75413;SDS011;64758;52.122;5.404;2023-11-19T08:18:13;24.87;;;3.30;;
75413;SDS011;64758;52.122;5.404;2023-11-19T08:20:40;22.15;;;2.72;;
75413;SDS011;64758;52.122;5.404;2023-11-19T08:23:07;24.40;;;3.08;;
75413;SDS011;64758;52.122;5.404;2023-11-19T08:25:34;22.65;;;2.20;;
75413;SDS011;64758;52.122;5.404;2023-11-19T08:28:01;30.73;;;3.42;;
75413;SDS011;64758;52.122;5.404;2023-11-19T08:30:29;25.63;;;2.60;;
75413;SDS011;64758;52.122;5.404;2023-11-19T08:32:56;24.95;;;2.72;;
75413;SDS011;64758;52.122;5.404;2023-11-19T08:35:25;34.47;;;4.63;;
75413;SDS011;64758;52.122;5.404;2023-11-19T08:37:51;22.55;;;2.88;;
75413;SDS011;64758;52.122;5.404;2023-11-19T08:40:19;26.13;;;2.67;;
75413;SDS011;64758;52.122;5.404;2023-11-19T08:42:46;23.23;;;2.60;;
75413;SDS011;64758;52.122;5.404;2023-11-19T08:45:12;27.65;;;2.58;;
75413;SDS011;64758;52.122;5.404;2023-11-19T08:47:39;23.23;;;2.72;;
75413;SDS011;64758;52.122;5.404;2023-11-19T08:50:07;25.70;;;2.67;;
75413;SDS011;64758;52.122;5.404;2023-11-19T08:52:34;28.23;;;3.53;;
75413;SDS011;64758;52.122;5.404;2023-11-19T08:55:01;28.37;;;3.27;;
75413;SDS011;64758;52.122;5.404;2023-11-19T08:57:28;23.58;;;2.92;;
75413;SDS011;64758;52.122;5.404;2023-11-19T08:59:54;30.75;;;3.10;;
75413;SDS011;64758;52.122;5.404;2023-11-19T09:02:21;20.67;;;2.53;;
75413;SDS011;64758;52.122;5.404;2023-11-19T09:04:47;24.17;;;2.70;;
75413;SDS011;64758;52.122;5.404;2023-11-19T09:07:16;25.83;;;2.80;;
75413;SDS011;64758;52.122;5.404;2023-11-19T09:09:43;14.25;;;2.30;;
75413;SDS011;64758;52.122;5.404;2023-11-19T09:12:10;24.40;;;2.22;;
75413;SDS011;64758;52.122;5.404;2023-11-19T09:14:38;26.17;;;2.83;;
75413;SDS011;64758;52.122;5.404;2023-11-19T09:17:05;19.05;;;2.53;;
75413;SDS011;64758;52.122;5.404;2023-11-19T09:19:32;30.90;;;3.03;;
75413;SDS011;64758;52.122;5.404;2023-11-19T09:21:59;23.48;;;2.83;;
75413;SDS011;64758;52.122;5.404;2023-11-19T09:24:25;28.98;;;3.92;;
75413;SDS011;64758;52.122;5.404;2023-11-19T09:26:52;29.10;;;3.85;;
75413;SDS011;64758;52.122;5.404;2023-11-19T09:29:18;24.92;;;3.25;;
75413;SDS011;64758;52.122;5.404;2023-11-19T09:31:45;24.87;;;3.13;;
75413;SDS011;64758;52.122;5.404;2023-11-19T09:34:12;26.55;;;2.50;;
75413;SDS011;64758;52.122;5.404;2023-11-19T09:36:38;22.50;;;2.50;;
75413;SDS011;64758;52.122;5.404;2023-11-19T09:39:12;26.23;;;3.17;;
75413;SDS011;64758;52.122;5.404;2023-11-19T09:41:44;23.85;;;2.47;;
75413;SDS011;64758;52.122;5.404;2023-11-19T09:44:11;19.10;;;2.40;;
75413;SDS011;64758;52.122;5.404;2023-11-19T09:46:39;20.73;;;2.22;;
75413;SDS011;64758;52.122;5.404;2023-11-19T09:49:08;20.30;;;2.70;;
75413;SDS011;64758;52.122;5.404;2023-11-19T09:51:38;20.10;;;2.15;;
75413;SDS011;64758;52.122;5.404;2023-11-19T09:54:05;24.90;;;3.08;;
75413;SDS011;64758;52.122;5.404;2023-11-19T09:56:31;21.10;;;2.50;;
75413;SDS011;64758;52.122;5.404;2023-11-19T09:58:59;24.65;;;2.67;;
75413;SDS011;64758;52.122;5.404;2023-11-19T10:01:26;20.95;;;3.33;;
75413;SDS011;64758;52.122;5.404;2023-11-19T10:03:55;24.67;;;2.70;;
75413;SDS011;64758;52.122;5.404;2023-11-19T10:06:22;26.42;;;3.13;;
75413;SDS011;64758;52.122;5.404;2023-11-19T10:08:51;23.77;;;2.70;;
75413;SDS011;64758;52.122;5.404;2023-11-19T10:11:17;20.77;;;2.47;;
75413;SDS011;64758;52.122;5.404;2023-11-19T10:13:44;25.35;;;2.65;;
75413;SDS011;64758;52.122;5.404;2023-11-19T10:16:14;19.45;;;2.55;;
75413;SDS011;64758;52.122;5.404;2023-11-19T10:18:48;24.77;;;2.58;;
75413;SDS011;64758;52.122;5.404;2023-11-19T10:21:17;25.83;;;2.23;;
75413;SDS011;64758;52.122;5.404;2023-11-19T10:23:51;25.02;;;2.83;;
75413;SDS011;64758;52.122;5.404;2023-11-19T10:26:23;20.02;;;2.63;;
75413;SDS011;64758;52.122;5.404;2023-11-19T10:28:50;22.17;;;2.60;;
75413;SDS011;64758;52.122;5.404;2023-11-19T10:31:17;28.40;;;2.72;;
75413;SDS011;64758;52.122;5.404;2023-11-19T10:33:45;19.43;;;2.60;;
75413;SDS011;64758;52.122;5.404;2023-11-19T10:36:12;23.88;;;3.03;;
75413;SDS011;64758;52.122;5.404;2023-11-19T10:38:39;24.10;;;2.40;;
75413;SDS011;64758;52.122;5.404;2023-11-19T10:41:07;22.40;;;3.25;;
75413;SDS011;64758;52.122;5.404;2023-11-19T10:43:43;20.90;;;3.03;;
75413;SDS011;64758;52.122;5.404;2023-11-19T10:46:13;23.73;;;2.40;;
75413;SDS011;64758;52.122;5.404;2023-11-19T10:48:40;22.58;;;2.63;;
75413;SDS011;64758;52.122;5.404;2023-11-19T10:51:07;20.90;;;2.45;;
75413;SDS011;64758;52.122;5.404;2023-11-19T10:53:37;18.92;;;2.28;;
75413;SDS011;64758;52.122;5.404;2023-11-19T10:56:06;20.38;;;2.47;;
75413;SDS011;64758;52.122;5.404;2023-11-19T10:58:37;17.57;;;2.53;;
75413;SDS011;64758;52.122;5.404;2023-11-19T11:01:13;21.05;;;2.58;;
75413;SDS011;64758;52.122;5.404;2023-11-19T11:03:42;26.08;;;3.15;;
75413;SDS011;64758;52.122;5.404;2023-11-19T11:06:12;20.05;;;2.22;;
75413;SDS011;64758;52.122;5.404;2023-11-19T11:08:39;29.38;;;3.15;;
75413;SDS011;64758;52.122;5.404;2023-11-19T11:11:07;17.73;;;2.20;;
75413;SDS011;64758;52.122;5.404;2023-11-19T11:13:34;19.85;;;2.58;;
75413;SDS011;64758;52.122;5.404;2023-11-19T11:16:03;19.15;;;2.10;;
75413;SDS011;64758;52.122;5.404;2023-11-19T11:18:34;23.15;;;2.55;;
75413;SDS011;64758;52.122;5.404;2023-11-19T11:21:01;20.77;;;2.75;;
75413;SDS011;64758;52.122;5.404;2023-11-19T11:23:41;16.37;;;2.53;;
75413;SDS011;64758;52.122;5.404;2023-11-19T11:37:06;22.70;;;2.53;;
75413;SDS011;64758;52.122;5.404;2023-11-19T11:39:36;26.70;;;3.50;;
75413;SDS011;64758;52.122;5.404;2023-11-19T11:42:45;21.90;;;2.97;;
75413;SDS011;64758;52.122;5.404;2023-11-19T11:55:37;15.68;;;1.75;;
75413;SDS011;64758;52.122;5.404;2023-11-19T11:58:21;23.13;;;2.63;;
75413;SDS011;64758;52.122;5.404;2023-11-19T12:00:52;17.27;;;2.95;;
75413;SDS011;64758;52.122;5.404;2023-11-19T12:03:20;20.90;;;3.37;;
75413;SDS011;64758;52.122;5.404;2023-11-19T12:05:50;26.35;;;3.33;;
75413;SDS011;64758;52.122;5.404;2023-11-19T12:08:20;21.17;;;2.33;;
75413;SDS011;64758;52.122;5.404;2023-11-19T12:10:53;19.73;;;2.70;;
75413;SDS011;64758;52.122;5.404;2023-11-19T12:14:09;18.38;;;2.63;;
75413;SDS011;64758;52.122;5.404;2023-11-19T12:16:21;16.87;;;1.67;;
75413;SDS011;64758;52.122;5.404;2023-11-19T12:18:48;19.13;;;2.05;;
75413;SDS011;64758;52.122;5.404;2023-11-19T12:21:28;21.00;;;2.58;;
75413;SDS011;64758;52.122;5.404;2023-11-19T12:23:57;16.10;;;2.50;;
75413;SDS011;64758;52.122;5.404;2023-11-19T12:26:35;15.43;;;1.88;;
75413;SDS011;64758;52.122;5.404;2023-11-19T12:29:03;14.20;;;1.50;;
75413;SDS011;64758;52.122;5.404;2023-11-19T12:31:34;16.08;;;2.00;;
75413;SDS011;64758;52.122;5.404;2023-11-19T12:34:05;16.08;;;2.60;;
75413;SDS011;64758;52.122;5.404;2023-11-19T12:36:32;17.63;;;1.70;;
75413;SDS011;64758;52.122;5.404;2023-11-19T12:38:58;17.42;;;2.20;;
75413;SDS011;64758;52.122;5.404;2023-11-19T12:41:26;15.00;;;1.63;;
75413;SDS011;64758;52.122;5.404;2023-11-19T12:43:53;12.05;;;1.77;;
75413;SDS011;64758;52.122;5.404;2023-11-19T12:46:23;22.08;;;2.42;;
75413;SDS011;64758;52.122;5.404;2023-11-19T12:48:50;15.02;;;1.58;;
75413;SDS011;64758;52.122;5.404;2023-11-19T12:51:18;13.48;;;1.35;;
75413;SDS011;64758;52.122;5.404;2023-11-19T12:53:50;16.57;;;1.73;;
75413;SDS011;64758;52.122;5.404;2023-11-19T12:56:24;13.98;;;1.58;;
75413;SDS011;64758;52.122;5.404;2023-11-19T12:58:51;16.55;;;2.38;;
75413;SDS011;64758;52.122;5.404;2023-11-19T13:01:18;18.70;;;2.22;;
75413;SDS011;64758;52.122;5.404;2023-11-19T13:03:47;17.48;;;2.00;;
75413;SDS011;64758;52.122;5.404;2023-11-19T13:06:15;17.20;;;1.87;;
75413;SDS011;64758;52.122;5.404;2023-11-19T13:08:45;15.73;;;2.15;;
75413;SDS011;64758;52.122;5.404;2023-11-19T13:11:33;17.52;;;1.83;;
75413;SDS011;64758;52.122;5.404;2023-11-19T13:16:31;26.67;;;2.78;;
75413;SDS011;64758;52.122;5.404;2023-11-19T13:18:58;15.83;;;1.80;;
75413;SDS011;64758;52.122;5.404;2023-11-19T13:21:26;17.85;;;2.60;;
75413;SDS011;64758;52.122;5.404;2023-11-19T13:23:53;20.58;;;2.92;;
75413;SDS011;64758;52.122;5.404;2023-11-19T13:26:19;16.20;;;2.03;;
75413;SDS011;64758;52.122;5.404;2023-11-19T13:28:46;20.35;;;2.20;;
75413;SDS011;64758;52.122;5.404;2023-11-19T13:31:12;18.03;;;1.73;;
75413;SDS011;64758;52.122;5.404;2023-11-19T13:33:39;22.25;;;2.03;;
75413;SDS011;64758;52.122;5.404;2023-11-19T13:36:06;23.85;;;2.83;;
75413;SDS011;64758;52.122;5.404;2023-11-19T13:38:34;21.92;;;2.25;;
75413;SDS011;64758;52.122;5.404;2023-11-19T13:41:02;19.85;;;1.83;;
75413;SDS011;64758;52.122;5.404;2023-11-19T13:43:29;17.93;;;2.23;;
75413;SDS011;64758;52.122;5.404;2023-11-19T13:45:55;19.65;;;3.65;;
75413;SDS011;64758;52.122;5.404;2023-11-19T13:48:22;17.10;;;2.33;;
75413;SDS011;64758;52.122;5.404;2023-11-19T13:50:49;18.67;;;2.13;;
75413;SDS011;64758;52.122;5.404;2023-11-19T13:53:16;19.25;;;2.03;;
75413;SDS011;64758;52.122;5.404;2023-11-19T13:55:42;16.07;;;2.33;;
75413;SDS011;64758;52.122;5.404;2023-11-19T13:58:09;20.38;;;2.10;;
75413;SDS011;64758;52.122;5.404;2023-11-19T14:00:37;19.23;;;1.92;;
75413;SDS011;64758;52.122;5.404;2023-11-19T14:03:04;18.48;;;1.85;;
75413;SDS011;64758;52.122;5.404;2023-11-19T14:05:31;11.35;;;1.50;;
75413;SDS011;64758;52.122;5.404;2023-11-19T14:08:00;15.83;;;1.23;;
75413;SDS011;64758;52.122;5.404;2023-11-19T14:10:29;17.20;;;1.80;;
75413;SDS011;64758;52.122;5.404;2023-11-19T14:12:55;14.40;;;2.20;;
75413;SDS011;64758;52.122;5.404;2023-11-19T14:15:22;15.77;;;1.63;;
75413;SDS011;64758;52.122;5.404;2023-11-19T14:17:48;16.88;;;1.65;;
75413;SDS011;64758;52.122;5.404;2023-11-19T14:20:15;15.80;;;1.83;;
75413;SDS011;64758;52.122;5.404;2023-11-19T14:22:43;17.10;;;2.00;;
75413;SDS011;64758;52.122;5.404;2023-11-19T14:25:12;16.73;;;1.80;;
75413;SDS011;64758;52.122;5.404;2023-11-19T14:27:40;12.95;;;1.92;;
75413;SDS011;64758;52.122;5.404;2023-11-19T14:30:08;17.50;;;1.77;;
75413;SDS011;64758;52.122;5.404;2023-11-19T14:32:40;21.10;;;2.17;;
75413;SDS011;64758;52.122;5.404;2023-11-19T14:35:10;14.20;;;1.75;;
75413;SDS011;64758;52.122;5.404;2023-11-19T14:37:36;22.15;;;2.35;;
75413;SDS011;64758;52.122;5.404;2023-11-19T14:40:03;16.80;;;1.83;;
75413;SDS011;64758;52.122;5.404;2023-11-19T14:42:32;15.25;;;1.50;;
75413;SDS011;64758;52.122;5.404;2023-11-19T14:44:58;17.43;;;2.03;;
75413;SDS011;64758;52.122;5.404;2023-11-19T14:47:25;22.00;;;2.47;;
75413;SDS011;64758;52.122;5.404;2023-11-19T14:49:52;20.20;;;2.10;;
75413;SDS011;64758;52.122;5.404;2023-11-19T14:52:18;21.83;;;2.30;;
75413;SDS011;64758;52.122;5.404;2023-11-19T14:54:45;14.45;;;1.85;;
75413;SDS011;64758;52.122;5.404;2023-11-19T14:57:12;19.07;;;1.70;;
75413;SDS011;64758;52.122;5.404;2023-11-19T14:59:39;20.83;;;2.42;;
75413;SDS011;64758;52.122;5.404;2023-11-19T15:02:06;23.40;;;2.20;;
75413;SDS011;64758;52.122;5.404;2023-11-19T15:04:32;25.95;;;2.47;;
75413;SDS011;64758;52.122;5.404;2023-11-19T15:07:00;19.15;;;1.95;;
75413;SDS011;64758;52.122;5.404;2023-11-19T15:09:27;19.70;;;2.37;;
75413;SDS011;64758;52.122;5.404;2023-11-19T15:11:54;18.20;;;2.65;;
75413;SDS011;64758;52.122;5.404;2023-11-19T15:14:20;24.23;;;2.30;;